createdAt,value
2023-09-27T00:00:11.033Z,6.30
2023-09-27T00:02:42.070Z,6.43
2023-09-27T00:05:11.963Z,5.78
2023-09-27T00:07:40.501Z,5.95
2023-09-27T00:10:11.486Z,5.97
2023-09-27T00:12:39.390Z,6.53
2023-09-27T00:15:09.097Z,6.50
2023-09-27T00:17:36.365Z,6.40
2023-09-27T00:20:04.842Z,6.72
2023-09-27T00:22:32.580Z,7.30
2023-09-27T00:25:00.572Z,6.90
2023-09-27T00:27:27.641Z,7.55
2023-09-27T00:29:54.863Z,7.22
2023-09-27T00:32:22.369Z,7.20
2023-09-27T00:34:49.652Z,7.63
2023-09-27T00:37:16.896Z,7.95
2023-09-27T00:39:43.920Z,8.25
2023-09-27T00:42:11.254Z,7.85
2023-09-27T00:44:38.429Z,7.65
2023-09-27T00:47:06.016Z,7.70
2023-09-27T00:49:33.213Z,7.85
2023-09-27T00:52:00.380Z,7.53
2023-09-27T00:54:28.115Z,8.30
2023-09-27T00:56:55.250Z,7.90
2023-09-27T00:59:22.500Z,8.90
2023-09-27T01:01:49.665Z,8.02
2023-09-27T01:04:17.424Z,7.25
2023-09-27T01:06:45.187Z,8.30
2023-09-27T01:09:15.458Z,7.90
2023-09-27T01:11:43.374Z,7.90
2023-09-27T01:14:10.662Z,8.88
2023-09-27T01:16:38.110Z,7.72
2023-09-27T01:19:05.569Z,7.82
2023-09-27T01:21:32.797Z,7.90
2023-09-27T01:23:59.839Z,7.60
2023-09-27T01:26:28.265Z,7.55
2023-09-27T01:28:56.462Z,7.45
2023-09-27T01:31:23.743Z,7.32
2023-09-27T01:33:51.178Z,7.40
2023-09-27T01:36:19.864Z,6.85
2023-09-27T01:38:46.900Z,7.88
2023-09-27T01:41:14.747Z,7.75
2023-09-27T01:43:41.832Z,6.80
2023-09-27T01:46:08.901Z,6.63
2023-09-27T01:48:36.158Z,6.97
2023-09-27T01:51:04.041Z,6.75
2023-09-27T01:53:31.134Z,6.57
2023-09-27T01:55:58.248Z,6.30
2023-09-27T01:58:25.271Z,6.80
2023-09-27T02:00:52.360Z,6.13
2023-09-27T02:03:21.635Z,6.45
2023-09-27T02:05:48.962Z,6.93
2023-09-27T02:08:17.087Z,6.32
2023-09-27T02:10:45.143Z,7.03
2023-09-27T02:13:12.545Z,6.60
2023-09-27T02:15:40.077Z,7.13
2023-09-27T02:18:07.371Z,6.35
2023-09-27T02:20:34.521Z,6.28
2023-09-27T02:23:01.685Z,6.82
2023-09-27T02:25:29.030Z,6.30
2023-09-27T02:27:56.113Z,6.05
2023-09-27T02:30:23.176Z,6.75
2023-09-27T02:32:50.257Z,6.20
2023-09-27T02:35:20.760Z,6.65
2023-09-27T02:37:48.213Z,6.50
2023-09-27T02:40:16.838Z,6.30
2023-09-27T02:42:45.247Z,6.97
2023-09-27T02:45:13.057Z,7.40
2023-09-27T02:47:40.998Z,6.63
2023-09-27T02:50:11.709Z,7.57
2023-09-27T02:52:41.806Z,7.10
2023-09-27T02:55:12.101Z,6.75
2023-09-27T02:57:39.786Z,7.45
2023-09-27T03:00:08.164Z,6.90
2023-09-27T03:02:36.662Z,7.13
2023-09-27T03:05:07.307Z,7.22
2023-09-27T03:07:39.587Z,6.38
2023-09-27T03:10:14.016Z,7.65
2023-09-27T03:12:42.057Z,7.00
2023-09-27T03:15:13.969Z,7.13
2023-09-27T03:17:43.958Z,7.32
2023-09-27T03:20:20.814Z,6.78
2023-09-27T03:22:49.527Z,7.70
2023-09-27T03:25:20.067Z,7.57
2023-09-27T03:27:47.761Z,7.75
2023-09-27T03:30:15.889Z,8.07
2023-09-27T03:32:44.052Z,7.53
2023-09-27T03:35:11.272Z,7.53
2023-09-27T03:37:39.393Z,7.53
2023-09-27T03:40:17.007Z,7.40
2023-09-27T03:42:45.651Z,7.18
2023-09-27T03:45:14.260Z,6.97
2023-09-27T03:47:44.313Z,7.45
2023-09-27T03:50:13.724Z,7.95
2023-09-27T03:52:41.875Z,8.18
2023-09-27T03:55:09.892Z,7.55
2023-09-27T03:57:38.806Z,8.02
2023-09-27T04:00:15.439Z,7.65
2023-09-27T04:02:44.810Z,8.05
2023-09-27T04:05:12.678Z,8.65
2023-09-27T04:07:43.456Z,7.88
2023-09-27T04:10:36.575Z,8.23
2023-09-27T04:13:04.446Z,8.02
2023-09-27T04:15:31.916Z,8.82
2023-09-27T04:17:59.106Z,7.70
2023-09-27T04:20:26.822Z,7.80
2023-09-27T04:22:53.888Z,7.25
2023-09-27T04:25:21.360Z,8.07
2023-09-27T04:27:51.101Z,7.90
2023-09-27T04:30:20.876Z,7.72
2023-09-27T04:32:52.840Z,7.15
2023-09-27T04:35:21.271Z,8.13
2023-09-27T04:37:48.655Z,8.18
2023-09-27T04:40:15.891Z,7.75
2023-09-27T04:42:43.238Z,8.27
2023-09-27T04:45:14.158Z,8.77
2023-09-27T04:47:42.083Z,8.32
2023-09-27T04:50:13.374Z,7.93
2023-09-27T04:52:41.147Z,8.55
2023-09-27T04:55:10.073Z,8.43
2023-09-27T04:57:37.886Z,8.40
2023-09-27T05:00:07.279Z,8.13
2023-09-27T05:02:34.716Z,8.02
2023-09-27T05:05:02.007Z,8.10
2023-09-27T05:07:30.772Z,8.30
2023-09-27T05:09:57.974Z,7.72
2023-09-27T05:12:25.497Z,8.88
2023-09-27T05:14:52.778Z,8.32
2023-09-27T05:17:19.971Z,7.90
2023-09-27T05:19:47.032Z,8.57
2023-09-27T05:22:15.675Z,8.50
2023-09-27T05:24:42.754Z,9.35
2023-09-27T05:27:09.924Z,9.35
2023-09-27T05:29:37.192Z,9.10
2023-09-27T05:32:04.671Z,8.60
2023-09-27T05:34:33.396Z,9.60
2023-09-27T05:37:00.620Z,8.93
2023-09-27T05:39:27.868Z,9.23
2023-09-27T05:41:54.986Z,9.68
2023-09-27T05:44:22.111Z,8.95
2023-09-27T05:46:49.799Z,8.70
2023-09-27T05:49:18.152Z,9.10
2023-09-27T05:51:45.739Z,9.60
2023-09-27T05:54:12.749Z,9.48
2023-09-27T05:56:39.857Z,9.82
2023-09-27T05:59:10.041Z,9.32
2023-09-27T06:01:37.607Z,10.00
2023-09-27T06:04:05.211Z,9.88
2023-09-27T06:06:33.772Z,9.00
2023-09-27T06:09:01.161Z,9.60
2023-09-27T06:11:29.172Z,8.40
2023-09-27T06:13:56.406Z,8.93
2023-09-27T06:16:24.019Z,9.13
2023-09-27T06:18:51.796Z,8.65
2023-09-27T06:21:19.002Z,8.93
2023-09-27T06:23:46.213Z,9.63
2023-09-27T06:26:13.934Z,8.45
2023-09-27T06:28:41.410Z,7.65
2023-09-27T06:31:08.690Z,8.38
2023-09-27T06:33:39.670Z,8.50
2023-09-27T06:36:11.091Z,8.13
2023-09-27T06:38:38.225Z,7.80
2023-09-27T06:41:05.509Z,8.93
2023-09-27T06:43:32.916Z,8.35
2023-09-27T06:46:02.805Z,8.32
2023-09-27T06:48:30.534Z,7.82
2023-09-27T06:50:57.782Z,7.95
2023-09-27T06:53:29.870Z,7.65
2023-09-27T06:56:00.284Z,7.30
2023-09-27T06:58:27.438Z,7.57
2023-09-27T07:00:55.972Z,7.70
2023-09-27T07:03:26.867Z,7.50
2023-09-27T07:05:54.729Z,6.75
2023-09-27T07:08:22.388Z,8.00
2023-09-27T07:10:50.307Z,8.05
2023-09-27T07:13:17.908Z,10.95
2023-09-27T07:15:49.237Z,9.43
2023-09-27T07:18:16.586Z,8.65
2023-09-27T07:20:43.925Z,7.90
2023-09-27T07:23:16.416Z,8.93
2023-09-27T07:25:44.449Z,9.00
2023-09-27T07:28:11.982Z,7.63
2023-09-27T07:30:39.673Z,8.98
2023-09-27T07:33:13.375Z,8.95
2023-09-27T07:35:44.360Z,9.95
2023-09-27T07:38:15.351Z,10.43
2023-09-27T07:40:46.784Z,9.60
2023-09-27T07:43:15.509Z,10.70
2023-09-27T07:45:44.620Z,11.45
2023-09-27T07:48:12.008Z,8.93
2023-09-27T07:50:39.999Z,7.90
2023-09-27T07:53:08.109Z,7.70
2023-09-27T07:55:44.635Z,6.45
2023-09-27T07:58:13.897Z,6.30
2023-09-27T08:00:41.813Z,6.32
2023-09-27T08:03:09.524Z,5.93
2023-09-27T08:05:54.690Z,5.78
2023-09-27T08:10:51.281Z,5.10
2023-09-27T08:13:18.974Z,5.53
2023-09-27T08:15:50.584Z,6.22
2023-09-27T08:18:17.817Z,6.30
2023-09-27T08:20:45.280Z,5.65
2023-09-27T08:23:12.992Z,8.38
2023-09-27T08:25:40.306Z,6.00
2023-09-27T08:28:07.961Z,5.43
2023-09-27T08:30:35.208Z,5.15
2023-09-27T08:33:02.622Z,5.53
2023-09-27T08:35:30.338Z,5.10
2023-09-27T08:37:57.656Z,5.22
2023-09-27T08:40:25.027Z,5.03
2023-09-27T08:42:57.210Z,5.18
2023-09-27T08:45:24.695Z,6.03
2023-09-27T08:47:52.428Z,5.10
2023-09-27T08:50:19.995Z,4.82
2023-09-27T08:52:50.707Z,4.72
2023-09-27T08:55:19.216Z,4.88
2023-09-27T08:57:47.704Z,4.95
2023-09-27T09:00:16.224Z,4.20
2023-09-27T09:02:45.064Z,4.78
2023-09-27T09:05:15.283Z,4.20
2023-09-27T09:07:45.869Z,3.70
2023-09-27T09:10:44.588Z,4.28
2023-09-27T09:13:12.384Z,4.65
2023-09-27T09:15:43.103Z,4.00
2023-09-27T09:18:16.445Z,3.85
2023-09-27T09:20:56.312Z,4.15
2023-09-27T09:23:36.681Z,3.80
2023-09-27T09:26:13.072Z,3.45
2023-09-27T09:28:54.376Z,3.20
2023-09-27T09:31:26.487Z,3.45
2023-09-27T09:34:07.191Z,3.58
2023-09-27T09:36:35.072Z,3.10
2023-09-27T09:39:14.773Z,3.58
2023-09-27T09:41:50.143Z,3.50
2023-09-27T09:44:21.858Z,3.00
2023-09-27T09:46:49.642Z,3.60
2023-09-27T09:49:17.318Z,3.30
2023-09-27T09:51:48.998Z,3.25
2023-09-27T09:54:32.024Z,3.58
2023-09-27T09:57:07.997Z,3.90
2023-09-27T09:59:46.572Z,3.70
2023-09-27T10:02:24.536Z,3.53
2023-09-27T10:04:57.624Z,3.10
2023-09-27T10:07:25.055Z,2.97
2023-09-27T10:09:53.585Z,3.65
2023-09-27T10:12:22.584Z,3.78
2023-09-27T10:14:50.140Z,3.33
2023-09-27T10:17:22.032Z,3.33
2023-09-27T10:20:21.272Z,3.30
2023-09-27T10:22:49.539Z,3.22
2023-09-27T10:25:28.978Z,3.25
2023-09-27T10:28:16.605Z,3.00
2023-09-27T10:30:46.625Z,2.97
2023-09-27T10:33:17.271Z,3.00
2023-09-27T10:35:48.367Z,3.20
2023-09-27T10:38:17.208Z,3.15
2023-09-27T10:40:45.517Z,3.55
2023-09-27T10:43:42.272Z,3.97
2023-09-27T10:46:09.727Z,3.50
2023-09-27T10:48:43.829Z,3.20
2023-09-27T10:51:11.020Z,3.25
2023-09-27T10:53:38.691Z,3.40
2023-09-27T10:56:05.903Z,3.15
2023-09-27T10:58:33.380Z,3.15
2023-09-27T11:01:05.993Z,3.50
2023-09-27T11:03:34.687Z,3.53
2023-09-27T11:06:12.301Z,3.25
2023-09-27T11:08:41.504Z,2.83
2023-09-27T11:11:10.932Z,3.10
2023-09-27T11:13:45.136Z,3.00
2023-09-27T11:16:16.073Z,2.88
2023-09-27T11:18:47.679Z,3.20
2023-09-27T11:21:15.346Z,2.78
2023-09-27T11:23:55.740Z,3.30
2023-09-27T11:26:24.158Z,3.38
2023-09-27T11:29:03.606Z,3.10
2023-09-27T11:31:32.615Z,3.10
2023-09-27T11:34:19.824Z,3.30
2023-09-27T11:36:47.548Z,3.25
2023-09-27T11:39:15.202Z,3.28
2023-09-27T11:41:43.238Z,2.90
2023-09-27T11:44:20.587Z,3.30
2023-09-27T11:46:50.834Z,3.08
2023-09-27T11:49:19.135Z,2.80
2023-09-27T11:51:46.655Z,2.70
2023-09-27T11:54:14.060Z,3.30
2023-09-27T11:56:47.656Z,3.78
2023-09-27T11:59:15.760Z,3.25
2023-09-27T12:01:42.971Z,3.40
2023-09-27T12:04:10.476Z,2.97
2023-09-27T12:06:38.940Z,3.03
2023-09-27T12:09:06.614Z,3.00
2023-09-27T12:11:34.741Z,3.08
2023-09-27T12:14:02.510Z,3.28
2023-09-27T12:16:30.149Z,3.92
2023-09-27T12:18:57.308Z,3.70
2023-09-27T12:21:25.212Z,2.85
2023-09-27T12:23:52.661Z,3.13
2023-09-27T12:26:20.052Z,3.03
2023-09-27T12:28:48.071Z,2.90
2023-09-27T12:31:15.736Z,2.78
2023-09-27T12:33:43.134Z,2.97
2023-09-27T12:36:10.765Z,3.10
2023-09-27T12:38:38.177Z,3.15
2023-09-27T12:41:09.140Z,2.10
2023-09-27T12:43:36.483Z,2.95
2023-09-27T12:46:04.094Z,3.63
2023-09-27T12:48:35.336Z,3.25
2023-09-27T12:51:03.302Z,3.17
2023-09-27T12:53:31.208Z,3.10
2023-09-27T12:55:58.614Z,3.13
2023-09-27T12:58:25.996Z,3.05
2023-09-27T13:00:53.284Z,2.85
2023-09-27T13:03:20.831Z,3.47
2023-09-27T13:05:50.290Z,3.50
2023-09-27T13:08:17.635Z,3.10
2023-09-27T13:10:45.689Z,3.17
2023-09-27T13:13:13.216Z,3.00
2023-09-27T13:15:40.942Z,3.42
2023-09-27T13:18:09.682Z,3.42
2023-09-27T13:20:37.220Z,3.05
2023-09-27T13:23:04.745Z,3.13
2023-09-27T13:25:31.972Z,3.38
2023-09-27T13:27:59.358Z,2.97
2023-09-27T13:30:35.527Z,3.38
2023-09-27T13:33:04.547Z,3.42
2023-09-27T13:35:35.056Z,3.65
2023-09-27T13:38:07.405Z,3.20
2023-09-27T13:40:35.622Z,2.95
2023-09-27T13:43:03.171Z,3.58
2023-09-27T13:45:30.948Z,3.33
2023-09-27T13:47:58.567Z,5.47
2023-09-27T13:50:26.239Z,3.67
2023-09-27T13:52:53.545Z,3.45
2023-09-27T13:55:22.908Z,3.00
2023-09-27T13:57:50.396Z,3.05
2023-09-27T14:00:18.814Z,3.30
2023-09-27T14:02:46.765Z,2.90
2023-09-27T14:05:14.218Z,3.17
2023-09-27T14:07:43.374Z,2.95
2023-09-27T14:10:37.012Z,3.10
2023-09-27T14:13:04.693Z,4.45
2023-09-27T14:15:32.560Z,3.72
2023-09-27T14:17:59.888Z,3.80
2023-09-27T14:20:27.824Z,3.85
2023-09-27T14:22:57.326Z,3.22
2023-09-27T14:25:26.354Z,3.30
2023-09-27T14:27:54.482Z,3.30
2023-09-27T14:30:21.901Z,3.38
2023-09-27T14:32:49.585Z,4.18
2023-09-27T14:35:17.384Z,3.08
2023-09-27T14:37:44.603Z,3.25
2023-09-27T14:40:12.420Z,3.40
2023-09-27T14:42:41.245Z,3.17
2023-09-27T14:45:20.182Z,3.58
2023-09-27T14:47:52.679Z,3.25
2023-09-27T14:50:20.162Z,3.78
2023-09-27T14:52:47.870Z,3.28
2023-09-27T14:55:16.576Z,2.90
2023-09-27T14:57:43.812Z,3.35
2023-09-27T15:00:13.284Z,3.65
2023-09-27T15:02:42.839Z,3.30
2023-09-27T15:05:12.410Z,3.13
2023-09-27T15:07:40.086Z,3.60
2023-09-27T15:10:33.283Z,4.00
2023-09-27T15:13:01.740Z,3.80
2023-09-27T15:15:29.438Z,3.92
2023-09-27T15:17:56.691Z,3.80
2023-09-27T15:20:24.028Z,4.65
2023-09-27T15:22:51.571Z,4.32
2023-09-27T15:25:18.961Z,4.28
2023-09-27T15:27:46.774Z,4.18
2023-09-27T15:30:13.965Z,4.10
2023-09-27T15:32:41.246Z,4.22
2023-09-27T15:35:09.107Z,4.70
2023-09-27T15:37:36.446Z,4.85
2023-09-27T15:40:06.540Z,4.25
2023-09-27T15:42:33.771Z,4.00
2023-09-27T15:45:04.735Z,3.58
2023-09-27T15:47:34.062Z,4.32
2023-09-27T15:50:01.283Z,4.18
2023-09-27T15:52:31.303Z,4.50
2023-09-27T15:54:59.244Z,4.47
2023-09-27T15:57:26.579Z,4.13
2023-09-27T15:59:53.965Z,4.03
2023-09-27T16:02:21.204Z,4.50
2023-09-27T16:04:52.749Z,4.47
2023-09-27T16:07:21.746Z,4.97
2023-09-27T16:09:49.184Z,4.72
2023-09-27T16:12:17.709Z,4.28
2023-09-27T16:14:45.105Z,4.43
2023-09-27T16:17:12.513Z,4.25
2023-09-27T16:19:40.797Z,4.63
2023-09-27T16:22:08.003Z,4.10
2023-09-27T16:24:35.128Z,4.50
2023-09-27T16:27:02.381Z,4.55
2023-09-27T16:29:29.777Z,4.40
2023-09-27T16:31:58.567Z,4.05
2023-09-27T16:34:26.618Z,4.70
2023-09-27T16:36:53.828Z,4.53
2023-09-27T16:39:21.048Z,4.72
2023-09-27T16:41:48.319Z,4.80
2023-09-27T16:44:15.811Z,4.80
2023-09-27T16:46:43.089Z,4.53
2023-09-27T16:49:10.935Z,4.85
2023-09-27T16:51:38.343Z,5.03
2023-09-27T16:54:05.615Z,5.45
2023-09-27T16:56:33.416Z,5.03
2023-09-27T16:59:01.022Z,4.65
2023-09-27T17:01:28.707Z,5.25
2023-09-27T17:03:56.474Z,5.13
2023-09-27T17:06:24.211Z,4.75
2023-09-27T17:08:51.440Z,4.53
2023-09-27T17:11:24.536Z,4.85
2023-09-27T17:13:52.489Z,4.50
2023-09-27T17:16:27.778Z,5.03
2023-09-27T17:18:55.713Z,5.25
2023-09-27T17:21:23.668Z,5.53
2023-09-27T17:23:51.291Z,5.30
2023-09-27T17:26:19.011Z,5.80
2023-09-27T17:28:46.284Z,5.93
2023-09-27T17:31:13.871Z,5.55
2023-09-27T17:33:42.603Z,5.75
2023-09-27T17:36:10.418Z,6.28
2023-09-27T17:38:38.551Z,6.03
2023-09-27T17:41:05.843Z,6.72
2023-09-27T17:43:35.291Z,6.63
2023-09-27T17:46:02.790Z,7.05
2023-09-27T17:48:30.424Z,5.60
2023-09-27T17:50:57.895Z,6.25
2023-09-27T17:53:25.368Z,6.85
2023-09-27T17:55:53.025Z,6.60
2023-09-27T17:58:20.801Z,6.47
2023-09-27T18:00:49.245Z,6.35
2023-09-27T18:03:16.574Z,6.22
2023-09-27T18:05:43.854Z,6.95
2023-09-27T18:08:11.437Z,7.43
2023-09-27T18:10:45.228Z,7.15
2023-09-27T18:13:12.602Z,6.97
2023-09-27T18:15:40.804Z,7.07
2023-09-27T18:18:07.922Z,6.55
2023-09-27T18:20:38.637Z,7.28
2023-09-27T18:23:06.036Z,7.05
2023-09-27T18:25:33.379Z,7.70
2023-09-27T18:28:01.004Z,7.80
2023-09-27T18:30:28.141Z,7.03
2023-09-27T18:32:55.293Z,7.65
2023-09-27T18:35:22.676Z,7.35
2023-09-27T18:37:49.802Z,7.95
2023-09-27T18:40:19.745Z,7.40
2023-09-27T18:42:46.842Z,7.88
2023-09-27T18:45:14.194Z,8.18
2023-09-27T18:47:41.741Z,7.32
2023-09-27T18:50:09.316Z,7.45
2023-09-27T18:52:36.589Z,8.35
2023-09-27T18:55:04.269Z,7.70
2023-09-27T18:57:31.860Z,7.57
2023-09-27T18:59:59.235Z,8.15
2023-09-27T19:02:26.537Z,7.90
2023-09-27T19:04:54.160Z,8.15
2023-09-27T19:07:21.737Z,8.48
2023-09-27T19:09:49.429Z,8.00
2023-09-27T19:12:17.022Z,8.68
2023-09-27T19:14:45.630Z,9.35
2023-09-27T19:17:12.738Z,8.32
2023-09-27T19:19:45.061Z,8.50
2023-09-27T19:22:12.464Z,9.38
2023-09-27T19:24:39.573Z,9.50
2023-09-27T19:27:06.887Z,9.07
2023-09-27T19:29:34.052Z,9.23
2023-09-27T19:32:01.589Z,8.98
2023-09-27T19:34:28.800Z,9.95
2023-09-27T19:36:55.940Z,9.50
2023-09-27T19:39:23.224Z,8.38
2023-09-27T19:41:51.110Z,9.25
2023-09-27T19:44:19.133Z,9.02
2023-09-27T19:46:46.787Z,9.43
2023-09-27T19:49:14.251Z,8.90
2023-09-27T19:51:41.441Z,9.18
2023-09-27T19:54:09.832Z,8.68
2023-09-27T19:56:36.959Z,8.52
2023-09-27T19:59:04.842Z,8.15
2023-09-27T20:01:33.122Z,8.63
2023-09-27T20:04:00.535Z,7.65
2023-09-27T20:06:29.062Z,8.43
2023-09-27T20:08:56.616Z,8.60
2023-09-27T20:11:24.931Z,7.63
2023-09-27T20:13:52.752Z,8.60
2023-09-27T20:16:20.287Z,7.68
2023-09-27T20:18:47.681Z,8.23
2023-09-27T20:21:14.732Z,8.15
2023-09-27T20:23:42.036Z,8.88
2023-09-27T20:26:09.355Z,8.82
2023-09-27T20:28:37.322Z,8.50
2023-09-27T20:31:04.717Z,8.15
2023-09-27T20:33:31.937Z,7.75
2023-09-27T20:35:59.194Z,8.05
2023-09-27T20:38:26.811Z,7.57
2023-09-27T20:40:54.046Z,8.00
2023-09-27T20:43:21.076Z,7.90
2023-09-27T20:45:48.300Z,8.43
2023-09-27T20:48:15.438Z,7.88
2023-09-27T20:50:42.574Z,7.20
2023-09-27T20:53:09.760Z,8.05
2023-09-27T20:55:36.793Z,7.80
2023-09-27T20:58:04.719Z,7.43
2023-09-27T21:00:31.899Z,7.90
2023-09-27T21:02:59.113Z,7.47
2023-09-27T21:05:26.327Z,7.47
2023-09-27T21:07:54.242Z,7.57
2023-09-27T21:10:22.281Z,7.50
2023-09-27T21:12:49.521Z,7.25
2023-09-27T21:15:16.549Z,7.80
2023-09-27T21:17:43.660Z,6.72
2023-09-27T21:20:11.363Z,7.25
2023-09-27T21:22:38.607Z,7.10
2023-09-27T21:25:07.198Z,7.93
2023-09-27T21:27:35.101Z,7.57
2023-09-27T21:30:05.988Z,6.65
2023-09-27T21:32:33.524Z,7.07
2023-09-27T21:35:00.752Z,7.15
2023-09-27T21:37:27.946Z,7.43
2023-09-27T21:39:54.953Z,7.28
2023-09-27T21:42:22.395Z,7.20
2023-09-27T21:44:49.470Z,7.40
2023-09-27T21:47:16.873Z,7.43
2023-09-27T21:49:43.997Z,7.53
2023-09-27T21:52:11.591Z,6.78
2023-09-27T21:54:38.770Z,7.53
2023-09-27T21:57:05.945Z,8.05
2023-09-27T21:59:33.084Z,7.43
2023-09-27T22:02:00.291Z,7.57
2023-09-27T22:04:27.826Z,7.53
2023-09-27T22:06:54.884Z,7.38
2023-09-27T22:09:23.921Z,7.10
2023-09-27T22:11:53.332Z,7.10
2023-09-27T22:14:21.348Z,7.28
2023-09-27T22:16:49.331Z,6.50
2023-09-27T22:19:18.221Z,6.90
2023-09-27T22:21:47.518Z,7.00
2023-09-27T22:24:16.826Z,6.55
2023-09-27T22:26:47.104Z,6.75
2023-09-27T22:29:15.403Z,6.63
2023-09-27T22:31:43.705Z,6.93
2023-09-27T22:34:26.287Z,7.05
2023-09-27T22:36:54.527Z,6.40
2023-09-27T22:39:23.120Z,6.80
2023-09-27T22:41:53.554Z,7.50
2023-09-27T22:44:22.072Z,7.43
2023-09-27T22:46:51.243Z,6.93
2023-09-27T22:49:20.414Z,7.07
2023-09-27T22:51:47.770Z,6.95
2023-09-27T22:54:18.267Z,7.40
2023-09-27T22:56:45.967Z,7.45
2023-09-27T22:59:13.262Z,7.30
2023-09-27T23:01:41.352Z,7.80
2023-09-27T23:04:12.437Z,7.70
2023-09-27T23:06:46.028Z,7.40
2023-09-27T23:09:25.762Z,7.38
2023-09-27T23:12:16.692Z,7.63
2023-09-27T23:15:02.432Z,7.53
2023-09-27T23:17:32.252Z,7.90
2023-09-27T23:20:00.302Z,7.97
2023-09-27T23:22:27.913Z,7.80
2023-09-27T23:25:18.171Z,7.50
2023-09-27T23:27:47.982Z,8.05
2023-09-27T23:30:15.579Z,9.20
2023-09-27T23:32:43.847Z,8.27
2023-09-27T23:35:11.236Z,8.32
2023-09-27T23:37:38.689Z,8.63
2023-09-27T23:40:15.565Z,9.00
2023-09-27T23:42:48.338Z,8.10
2023-09-27T23:45:15.793Z,8.00
2023-09-27T23:47:51.037Z,8.13
2023-09-27T23:50:18.915Z,8.38
2023-09-27T23:52:47.519Z,8.25
2023-09-27T23:55:18.469Z,7.68
2023-09-27T23:57:49.290Z,8.63
